createdAt,value
2022-08-10T00:00:02.926Z,21.93
2022-08-10T00:01:02.787Z,21.91
2022-08-10T00:02:02.790Z,21.89
2022-08-10T00:03:02.714Z,21.89
2022-08-10T00:04:02.773Z,21.92
2022-08-10T00:05:02.871Z,21.88
2022-08-10T00:06:02.693Z,21.85
2022-08-10T00:07:02.671Z,21.83
2022-08-10T00:08:02.650Z,21.85
2022-08-10T00:09:02.643Z,21.83
2022-08-10T00:10:02.805Z,21.85
2022-08-10T00:11:02.635Z,21.88
2022-08-10T00:12:02.629Z,21.85
2022-08-10T00:13:02.599Z,21.83
2022-08-10T00:14:02.587Z,21.82
2022-08-10T00:15:02.755Z,21.80
2022-08-10T00:16:02.550Z,21.80
2022-08-10T00:17:02.541Z,21.80
2022-08-10T00:18:02.521Z,21.77
2022-08-10T00:19:02.541Z,21.77
2022-08-10T00:20:08.421Z,21.75
2022-08-10T00:21:03.489Z,21.76
2022-08-10T00:22:02.480Z,21.75
2022-08-10T00:23:02.477Z,21.75
2022-08-10T00:24:02.456Z,21.75
2022-08-10T00:25:02.446Z,21.75
2022-08-10T00:26:02.616Z,21.73
2022-08-10T00:28:00.720Z,21.72
2022-08-10T00:28:04.228Z,21.72
2022-08-10T00:29:02.398Z,21.70
2022-08-10T00:30:02.375Z,21.69
2022-08-10T00:31:02.555Z,21.67
2022-08-10T00:32:02.347Z,21.67
2022-08-10T00:33:02.339Z,21.64
2022-08-10T00:34:02.331Z,21.61
2022-08-10T00:35:02.324Z,21.60
2022-08-10T00:36:02.483Z,21.55
2022-08-10T00:37:02.285Z,21.55
2022-08-10T00:38:02.274Z,21.55
2022-08-10T00:39:02.265Z,21.57
2022-08-10T00:40:02.370Z,21.55
2022-08-10T00:41:02.418Z,21.54
2022-08-10T00:42:07.592Z,21.51
2022-08-10T00:43:03.218Z,21.52
2022-08-10T00:44:02.202Z,21.51
2022-08-10T00:45:02.193Z,21.46
2022-08-10T00:46:02.363Z,21.45
2022-08-10T00:47:02.168Z,21.43
2022-08-10T00:48:02.149Z,21.43
2022-08-10T00:49:02.139Z,21.45
2022-08-10T00:50:02.195Z,21.45
2022-08-10T00:51:02.299Z,21.45
2022-08-10T00:52:02.100Z,21.42
2022-08-10T00:53:02.091Z,21.40
2022-08-10T00:54:02.068Z,21.37
2022-08-10T00:55:02.060Z,21.39
2022-08-10T00:57:14.353Z,21.39
2022-08-10T00:57:15.573Z,21.37
2022-08-10T00:58:03.021Z,21.39
2022-08-10T00:59:02.018Z,21.37
2022-08-10T01:00:01.995Z,21.37
2022-08-10T01:01:02.075Z,21.35
2022-08-10T01:02:10.010Z,21.37
2022-08-10T01:03:03.055Z,21.35
2022-08-10T01:04:58.872Z,21.35
2022-08-10T01:05:03.210Z,21.36
2022-08-10T01:06:01.925Z,21.37
2022-08-10T01:07:02.180Z,21.36
2022-08-10T01:08:01.901Z,21.35
2022-08-10T01:09:01.883Z,21.36
2022-08-10T01:10:01.866Z,21.36
2022-08-10T01:11:01.854Z,21.35
2022-08-10T01:12:47.051Z,21.36
2022-08-10T01:13:03.009Z,21.36
2022-08-10T01:14:01.811Z,21.36
2022-08-10T01:15:01.809Z,21.39
2022-08-10T01:16:01.800Z,21.39
2022-08-10T01:17:01.779Z,21.39
2022-08-10T01:18:01.952Z,21.37
2022-08-10T01:19:01.749Z,21.39
2022-08-10T01:20:01.900Z,21.40
2022-08-10T01:21:01.727Z,21.37
2022-08-10T01:22:01.708Z,21.37
2022-08-10T01:23:01.701Z,21.39
2022-08-10T01:24:01.872Z,21.37
2022-08-10T01:25:01.685Z,21.37
2022-08-10T01:26:11.676Z,21.39
2022-08-10T01:27:02.659Z,21.39
2022-08-10T01:28:01.637Z,21.39
2022-08-10T01:29:01.805Z,21.42
2022-08-10T01:30:01.613Z,21.40
2022-08-10T01:31:01.608Z,21.39
2022-08-10T01:32:01.579Z,21.36
2022-08-10T01:33:01.573Z,21.35
2022-08-10T01:34:02.299Z,21.33
2022-08-10T01:35:01.546Z,21.29
2022-08-10T01:36:01.534Z,21.27
2022-08-10T01:37:01.522Z,21.25
2022-08-10T01:38:01.506Z,21.22
2022-08-10T01:39:01.674Z,21.21
2022-08-10T01:40:01.492Z,21.18
2022-08-10T01:41:01.473Z,21.17
2022-08-10T01:42:01.454Z,21.15
2022-08-10T01:43:08.497Z,21.12
2022-08-10T01:44:03.629Z,21.11
2022-08-10T01:45:01.413Z,21.07
2022-08-10T01:46:01.401Z,21.03
2022-08-10T01:47:01.398Z,21.03
2022-08-10T01:48:01.379Z,21.03
2022-08-10T01:49:01.361Z,20.99
2022-08-10T01:50:01.590Z,20.97
2022-08-10T01:51:01.580Z,20.96
2022-08-10T01:52:01.328Z,20.97
2022-08-10T01:53:01.308Z,20.96
2022-08-10T01:54:01.297Z,20.96
2022-08-10T01:55:01.279Z,20.93
2022-08-10T01:56:01.516Z,20.93
2022-08-10T01:57:01.262Z,20.93
2022-08-10T01:58:01.245Z,20.92
2022-08-10T01:59:01.230Z,20.93
2022-08-10T02:00:02.108Z,20.93
2022-08-10T02:01:01.507Z,20.93
2022-08-10T02:02:01.196Z,20.95
2022-08-10T02:03:01.179Z,20.95
2022-08-10T02:04:03.862Z,20.88
2022-08-10T02:05:01.147Z,20.84
2022-08-10T02:06:01.383Z,20.82
2022-08-10T02:07:01.124Z,20.82
2022-08-10T02:08:01.120Z,20.82
2022-08-10T02:09:06.219Z,20.81
2022-08-10T02:10:02.091Z,20.82
2022-08-10T02:11:01.313Z,20.84
2022-08-10T02:12:07.584Z,20.85
2022-08-10T02:13:02.043Z,20.87
2022-08-10T02:14:01.041Z,20.90
2022-08-10T02:15:01.021Z,20.90
2022-08-10T02:16:02.541Z,20.93
2022-08-10T02:17:00.997Z,20.93
2022-08-10T02:18:02.072Z,20.93
2022-08-10T02:19:00.974Z,20.88
2022-08-10T02:20:00.963Z,20.87
2022-08-10T02:21:00.948Z,20.88
2022-08-10T02:22:34.766Z,20.88
2022-08-10T02:23:01.920Z,20.92
2022-08-10T02:24:00.907Z,20.90
2022-08-10T02:25:00.890Z,20.90
2022-08-10T02:26:00.896Z,20.87
2022-08-10T02:27:01.099Z,20.85
2022-08-10T02:28:00.865Z,20.87
2022-08-10T02:29:00.847Z,20.85
2022-08-10T02:30:00.832Z,20.84
2022-08-10T02:31:00.831Z,20.81
2022-08-10T02:32:01.053Z,20.81
2022-08-10T02:33:00.794Z,20.80
2022-08-10T02:34:00.783Z,20.77
2022-08-10T02:35:00.770Z,20.75
2022-08-10T02:36:00.761Z,20.72
2022-08-10T02:37:00.983Z,20.74
2022-08-10T02:38:00.740Z,20.72
2022-08-10T02:39:01.245Z,20.72
2022-08-10T02:40:00.704Z,20.70
2022-08-10T02:45:13.002Z,20.69
2022-08-10T02:45:14.851Z,20.69
2022-08-10T02:45:20.125Z,20.72
2022-08-10T02:45:20.366Z,20.72
2022-08-10T02:45:21.243Z,20.72
2022-08-10T02:46:01.631Z,20.70
2022-08-10T02:47:00.620Z,20.70
2022-08-10T02:48:00.841Z,20.70
2022-08-10T02:49:00.589Z,20.70
2022-08-10T02:50:00.584Z,20.70
2022-08-10T02:51:00.578Z,20.70
2022-08-10T02:52:09.951Z,20.70
2022-08-10T02:53:00.789Z,20.67
2022-08-10T02:54:02.378Z,20.69
2022-08-10T02:55:06.023Z,20.69
2022-08-10T02:56:01.511Z,20.67
2022-08-10T02:57:00.490Z,20.67
2022-08-10T02:58:16.858Z,20.66
2022-08-10T02:59:01.492Z,20.63
2022-08-10T03:00:00.471Z,20.63
2022-08-10T03:01:00.511Z,20.62
2022-08-10T03:02:00.458Z,20.60
2022-08-10T03:03:00.650Z,20.60
2022-08-10T03:04:00.428Z,20.60
2022-08-10T03:05:00.397Z,20.63
2022-08-10T03:06:00.399Z,20.63
2022-08-10T03:07:00.379Z,20.63
2022-08-10T03:08:00.597Z,20.65
2022-08-10T03:09:00.344Z,20.65
2022-08-10T03:10:00.349Z,20.65
2022-08-10T03:11:00.350Z,20.62
2022-08-10T03:12:35.693Z,20.59
2022-08-10T03:13:01.565Z,20.59
2022-08-10T03:14:00.282Z,20.58
2022-08-10T03:15:00.265Z,20.59
2022-08-10T03:16:00.254Z,20.59
2022-08-10T03:17:00.244Z,20.58
2022-08-10T03:18:00.482Z,20.59
2022-08-10T03:19:00.232Z,20.60
2022-08-10T03:20:34.314Z,20.60
2022-08-10T03:21:01.255Z,20.60
2022-08-10T03:22:00.184Z,20.60
2022-08-10T03:23:00.403Z,20.58
2022-08-10T03:24:00.194Z,20.58
2022-08-10T03:25:00.183Z,20.55
2022-08-10T03:26:00.135Z,20.55
2022-08-10T03:27:00.123Z,20.52
2022-08-10T03:28:00.380Z,20.50
2022-08-10T03:29:00.085Z,20.48
2022-08-10T03:30:29.545Z,20.50
2022-08-10T03:31:01.061Z,20.51
2022-08-10T03:32:00.073Z,20.52
2022-08-10T03:33:00.038Z,20.52
2022-08-10T03:34:00.308Z,20.52
2022-08-10T03:35:00.011Z,20.50
2022-08-10T03:36:40.313Z,20.50
2022-08-10T03:37:00.993Z,20.48
2022-08-10T03:38:00.314Z,20.48
2022-08-10T03:39:00.206Z,20.50
2022-08-10T03:39:59.998Z,20.48
2022-08-10T03:40:59.904Z,20.48
2022-08-10T03:41:59.925Z,20.50
2022-08-10T03:42:59.917Z,20.48
2022-08-10T03:44:00.136Z,20.47
2022-08-10T03:44:59.894Z,20.47
2022-08-10T03:45:59.876Z,20.47
2022-08-10T03:46:59.884Z,20.47
2022-08-10T03:47:59.860Z,20.47
2022-08-10T03:49:00.909Z,20.47
2022-08-10T03:49:59.822Z,20.44
2022-08-10T03:51:00.764Z,20.41
2022-08-10T03:51:59.832Z,20.41
2022-08-10T03:52:59.789Z,20.41
2022-08-10T03:54:04.908Z,20.41
2022-08-10T03:55:00.721Z,20.36
2022-08-10T03:56:29.624Z,20.34
2022-08-10T03:57:00.736Z,20.32
2022-08-10T03:57:59.690Z,20.32
2022-08-10T03:58:59.888Z,20.31
2022-08-10T03:59:59.678Z,20.31
2022-08-10T04:00:59.755Z,20.31
2022-08-10T04:02:52.870Z,20.26
2022-08-10T04:03:00.669Z,20.22
2022-08-10T04:04:11.603Z,20.19
2022-08-10T04:05:00.615Z,20.18
2022-08-10T04:05:59.598Z,20.16
2022-08-10T04:06:59.574Z,20.16
2022-08-10T04:07:59.538Z,20.18
2022-08-10T04:08:59.585Z,20.18
2022-08-10T04:09:59.799Z,20.18
2022-08-10T04:10:59.528Z,20.18
2022-08-10T04:11:59.548Z,20.18
2022-08-10T04:12:59.509Z,20.16
2022-08-10T04:13:59.513Z,20.14
2022-08-10T04:14:59.731Z,20.14
2022-08-10T04:15:59.446Z,20.14
2022-08-10T04:16:59.435Z,20.16
2022-08-10T04:18:05.626Z,20.16
2022-08-10T04:19:00.580Z,20.14
2022-08-10T04:19:59.631Z,20.10
2022-08-10T04:20:59.415Z,20.06
2022-08-10T04:21:59.381Z,20.04
2022-08-10T04:22:59.403Z,20.03
2022-08-10T04:23:59.339Z,20.03
2022-08-10T04:24:59.332Z,20.04
2022-08-10T04:25:59.560Z,19.99
2022-08-10T04:26:59.332Z,20.00
2022-08-10T04:27:59.290Z,19.94
2022-08-10T04:28:59.298Z,19.95
2022-08-10T04:29:59.280Z,19.95
2022-08-10T04:31:00.415Z,19.95
2022-08-10T04:31:59.279Z,19.95
2022-08-10T04:32:59.235Z,19.91
2022-08-10T04:33:59.258Z,19.89
2022-08-10T04:35:00.524Z,19.89
2022-08-10T04:35:59.196Z,19.91
2022-08-10T04:36:59.248Z,19.95
2022-08-10T04:37:59.189Z,19.95
2022-08-10T04:38:59.196Z,19.95
2022-08-10T04:39:59.146Z,19.89
2022-08-10T04:40:59.424Z,19.91
2022-08-10T04:41:59.134Z,19.88
2022-08-10T04:43:02.137Z,19.89
2022-08-10T04:43:59.086Z,19.91
2022-08-10T04:44:59.080Z,19.92
2022-08-10T04:45:59.334Z,19.96
2022-08-10T04:46:59.291Z,19.99
2022-08-10T04:48:02.946Z,20.00
2022-08-10T04:49:01.954Z,20.04
2022-08-10T04:49:59.273Z,20.06
2022-08-10T04:50:59.600Z,20.09
2022-08-10T04:51:58.993Z,20.10
2022-08-10T04:52:58.979Z,20.10
2022-08-10T04:54:05.535Z,20.09
2022-08-10T04:55:00.189Z,20.11
2022-08-10T04:55:58.933Z,20.11
2022-08-10T04:56:58.929Z,20.11
2022-08-10T04:57:58.909Z,20.14
2022-08-10T04:58:58.920Z,20.13
2022-08-10T04:59:59.121Z,20.16
2022-08-10T05:00:58.922Z,20.14
2022-08-10T05:02:28.530Z,20.16
2022-08-10T05:02:59.857Z,20.16
2022-08-10T05:04:37.270Z,20.24
2022-08-10T05:05:04.054Z,20.28
2022-08-10T05:05:58.808Z,20.31
2022-08-10T05:06:58.810Z,20.32
2022-08-10T05:07:58.786Z,20.32
2022-08-10T05:08:58.777Z,20.32
2022-08-10T05:10:03.125Z,20.37
2022-08-10T05:10:59.755Z,20.39
2022-08-10T05:11:58.734Z,20.43
2022-08-10T05:12:58.724Z,20.44
2022-08-10T05:13:58.705Z,20.44
2022-08-10T05:14:58.941Z,20.44
2022-08-10T05:15:58.684Z,20.44
2022-08-10T05:16:58.703Z,20.48
2022-08-10T05:18:08.118Z,20.51
2022-08-10T05:18:59.741Z,20.51
2022-08-10T05:20:03.608Z,20.48
2022-08-10T05:20:59.632Z,20.50
2022-08-10T05:22:04.572Z,20.50
2022-08-10T05:22:59.601Z,20.50
2022-08-10T05:23:58.591Z,20.52
2022-08-10T05:24:58.811Z,20.52
2022-08-10T05:25:58.561Z,20.52
2022-08-10T05:27:09.372Z,20.52
2022-08-10T05:28:03.096Z,20.55
2022-08-10T05:28:59.521Z,20.56
2022-08-10T05:30:01.225Z,20.56
2022-08-10T05:30:58.502Z,20.58
2022-08-10T05:31:58.495Z,20.59
2022-08-10T05:33:02.687Z,20.62
2022-08-10T05:33:59.457Z,20.65
2022-08-10T05:34:58.688Z,20.63
2022-08-10T05:35:58.479Z,20.66
2022-08-10T05:36:58.459Z,20.66
2022-08-10T05:38:11.509Z,20.66
2022-08-10T05:38:59.405Z,20.67
2022-08-10T05:39:58.664Z,20.69
2022-08-10T05:40:58.374Z,20.70
2022-08-10T05:42:00.965Z,20.75
2022-08-10T05:42:58.356Z,20.78
2022-08-10T05:43:58.337Z,20.81
2022-08-10T05:44:58.583Z,20.84
2022-08-10T05:46:17.399Z,20.87
2022-08-10T05:46:59.294Z,20.90
2022-08-10T05:48:57.767Z,20.88
2022-08-10T05:49:01.531Z,20.90
2022-08-10T05:49:58.520Z,20.92
2022-08-10T05:50:58.255Z,20.90
2022-08-10T05:51:58.230Z,20.93
2022-08-10T05:52:58.223Z,20.93
2022-08-10T05:54:02.200Z,20.90
2022-08-10T05:55:02.719Z,20.92
2022-08-10T05:55:58.193Z,20.92
2022-08-10T05:56:58.510Z,20.96
2022-08-10T05:57:58.157Z,20.97
2022-08-10T05:58:58.228Z,21.00
2022-08-10T06:00:33.589Z,21.06
2022-08-10T06:00:59.155Z,21.09
2022-08-10T06:02:31.031Z,21.12
2022-08-10T06:02:59.094Z,21.12
2022-08-10T06:03:58.091Z,21.14
2022-08-10T06:04:58.305Z,21.15
2022-08-10T06:05:58.054Z,21.15
2022-08-10T06:06:58.045Z,21.14
2022-08-10T06:07:58.025Z,21.12
2022-08-10T06:08:58.051Z,21.17
2022-08-10T06:09:59.734Z,21.20
2022-08-10T06:12:23.244Z,21.24
2022-08-10T06:12:23.509Z,21.29
2022-08-10T06:13:00.866Z,21.32
2022-08-10T06:14:06.123Z,21.32
2022-08-10T06:15:00.076Z,21.35
2022-08-10T06:15:59.157Z,21.35
2022-08-10T06:16:57.925Z,21.36
2022-08-10T06:18:01.720Z,21.37
2022-08-10T06:18:57.889Z,21.39
2022-08-10T06:19:57.869Z,21.40
2022-08-10T06:20:58.100Z,21.43
2022-08-10T06:22:01.133Z,21.46
2022-08-10T06:22:57.841Z,21.50
2022-08-10T06:23:57.823Z,21.51
2022-08-10T06:25:27.271Z,21.51
2022-08-10T06:26:10.670Z,21.54
2022-08-10T06:26:58.785Z,21.57
2022-08-10T06:27:57.775Z,21.58
2022-08-10T06:29:03.312Z,21.60
2022-08-10T06:29:58.740Z,21.60
2022-08-10T06:30:57.985Z,21.61
2022-08-10T06:31:57.719Z,21.58
2022-08-10T06:32:57.710Z,21.58
2022-08-10T06:33:57.696Z,21.62
2022-08-10T06:34:57.692Z,21.64
2022-08-10T06:35:57.910Z,21.69
2022-08-10T06:36:57.676Z,21.73
2022-08-10T06:37:57.667Z,21.73
2022-08-10T06:39:16.720Z,21.75
2022-08-10T06:39:58.636Z,21.79
2022-08-10T06:40:57.845Z,21.77
2022-08-10T06:42:15.756Z,21.83
2022-08-10T06:42:58.585Z,21.83
2022-08-10T06:43:57.564Z,21.88
2022-08-10T06:44:57.558Z,21.92
2022-08-10T06:46:07.747Z,21.93
2022-08-10T06:46:58.573Z,21.93
2022-08-10T06:47:57.502Z,21.95
2022-08-10T06:48:57.490Z,21.99
2022-08-10T06:49:59.902Z,22.00
2022-08-10T06:50:58.972Z,22.00
2022-08-10T06:51:57.695Z,22.04
2022-08-10T06:52:57.492Z,22.06
2022-08-10T06:53:57.421Z,22.06
2022-08-10T06:54:57.420Z,22.08
2022-08-10T06:55:57.652Z,22.11
2022-08-10T06:57:17.483Z,22.11
2022-08-10T06:57:59.622Z,22.13
2022-08-10T06:58:57.370Z,22.15
2022-08-10T06:59:57.350Z,22.20
2022-08-10T07:00:57.616Z,22.23
2022-08-10T07:01:57.338Z,22.25
2022-08-10T07:02:57.317Z,22.25
2022-08-10T07:03:57.308Z,22.26
2022-08-10T07:04:57.288Z,22.25
2022-08-10T07:05:57.513Z,22.25
2022-08-10T07:06:57.265Z,22.28
2022-08-10T07:07:57.254Z,22.29
2022-08-10T07:08:57.243Z,22.33
2022-08-10T07:09:57.219Z,22.35
2022-08-10T07:10:57.214Z,22.39
2022-08-10T07:11:57.454Z,22.41
2022-08-10T07:12:58.185Z,22.44
2022-08-10T07:14:15.823Z,22.44
2022-08-10T07:14:58.174Z,22.47
2022-08-10T07:16:00.336Z,22.45
2022-08-10T07:16:57.189Z,22.45
2022-08-10T07:17:57.123Z,22.48
2022-08-10T07:18:57.113Z,22.51
2022-08-10T07:19:57.101Z,22.51
2022-08-10T07:20:57.109Z,22.53
2022-08-10T07:21:58.071Z,22.57
2022-08-10T07:23:55.133Z,22.59
2022-08-10T07:24:00.598Z,22.57
2022-08-10T07:24:57.058Z,22.57
2022-08-10T07:25:57.036Z,22.55
2022-08-10T07:26:57.270Z,22.54
2022-08-10T07:27:59.597Z,22.55
2022-08-10T07:28:56.992Z,22.60
2022-08-10T07:29:56.986Z,22.63
2022-08-10T07:30:56.980Z,22.65
2022-08-10T07:31:57.960Z,22.63
2022-08-10T07:32:56.966Z,22.66
2022-08-10T07:33:56.927Z,22.69
2022-08-10T07:34:56.915Z,22.75
2022-08-10T07:35:56.918Z,22.75
2022-08-10T07:36:57.137Z,22.73
2022-08-10T07:37:56.888Z,22.78
2022-08-10T07:38:56.864Z,22.81
2022-08-10T07:40:02.798Z,22.81
2022-08-10T07:40:57.836Z,22.85
2022-08-10T07:41:56.885Z,22.88
2022-08-10T07:42:57.064Z,22.93
2022-08-10T07:43:56.791Z,22.96
2022-08-10T07:44:56.794Z,22.98
2022-08-10T07:45:56.795Z,22.98
2022-08-10T07:46:56.791Z,23.00
2022-08-10T07:47:57.039Z,23.00
2022-08-10T07:48:56.759Z,23.00
2022-08-10T07:49:56.754Z,23.05
2022-08-10T07:50:56.710Z,23.03
2022-08-10T07:51:56.927Z,23.06
2022-08-10T07:52:57.147Z,23.09
2022-08-10T07:53:56.691Z,23.10
2022-08-10T07:54:56.657Z,23.09
2022-08-10T07:56:05.688Z,23.08
2022-08-10T07:56:57.630Z,23.09
2022-08-10T07:57:56.860Z,23.10
2022-08-10T07:58:56.607Z,23.10
2022-08-10T07:59:56.597Z,23.15
2022-08-10T08:00:56.576Z,23.17
2022-08-10T08:01:56.653Z,23.17
2022-08-10T08:02:56.556Z,23.20
2022-08-10T08:04:11.166Z,23.18
2022-08-10T08:04:57.536Z,23.20
2022-08-10T08:06:02.581Z,23.20
2022-08-10T08:06:57.516Z,23.23
2022-08-10T08:07:56.487Z,23.24
2022-08-10T08:08:56.726Z,23.28
2022-08-10T08:09:58.324Z,23.32
2022-08-10T08:10:56.466Z,23.36
2022-08-10T08:11:56.445Z,23.43
2022-08-10T08:12:56.414Z,23.46
2022-08-10T08:13:56.651Z,23.47
2022-08-10T08:14:56.408Z,23.50
2022-08-10T08:16:18.556Z,23.51
2022-08-10T08:16:57.366Z,23.50
2022-08-10T08:17:59.743Z,23.54
2022-08-10T08:19:26.455Z,23.55
2022-08-10T08:19:57.343Z,23.56
2022-08-10T08:20:56.313Z,23.58
2022-08-10T08:24:07.660Z,23.62
2022-08-10T08:24:09.031Z,23.62
2022-08-10T08:24:11.138Z,23.58
2022-08-10T08:24:57.262Z,23.59
2022-08-10T08:25:56.269Z,23.62
2022-08-10T08:26:56.229Z,23.65
2022-08-10T08:27:56.219Z,23.66
2022-08-10T08:28:56.208Z,23.69
2022-08-10T08:29:56.439Z,23.69
2022-08-10T08:30:56.178Z,23.71
2022-08-10T08:32:01.388Z,23.74
2022-08-10T08:32:57.156Z,23.78
2022-08-10T08:33:56.149Z,23.83
2022-08-10T08:34:56.357Z,23.87
2022-08-10T08:35:56.118Z,23.87
2022-08-10T08:36:59.455Z,23.91
2022-08-10T08:38:32.122Z,23.93
2022-08-10T08:38:57.075Z,23.98
2022-08-10T08:39:56.058Z,23.98
2022-08-10T08:40:56.275Z,23.95
2022-08-10T08:41:56.047Z,23.96
2022-08-10T08:42:56.020Z,24.01
2022-08-10T08:43:56.005Z,23.99
2022-08-10T08:44:55.991Z,24.02
2022-08-10T08:46:01.784Z,24.06
2022-08-10T08:46:59.232Z,24.08
2022-08-10T08:48:03.178Z,24.10
2022-08-10T08:48:56.942Z,24.13
2022-08-10T08:50:08.690Z,24.16
2022-08-10T08:50:57.847Z,24.20
2022-08-10T08:52:09.242Z,24.20
2022-08-10T08:53:02.968Z,24.24
2022-08-10T08:54:02.055Z,24.28
2022-08-10T08:54:56.862Z,24.24
2022-08-10T08:56:04.022Z,24.26
2022-08-10T08:56:56.844Z,24.29
2022-08-10T08:57:55.829Z,24.32
2022-08-10T08:58:55.819Z,24.33
2022-08-10T08:59:55.798Z,24.32
2022-08-10T09:00:56.035Z,24.33
2022-08-10T09:01:55.820Z,24.36
2022-08-10T09:02:55.778Z,24.35
2022-08-10T09:03:55.746Z,24.39
2022-08-10T09:04:55.736Z,24.42
2022-08-10T09:05:58.633Z,24.42
2022-08-10T09:06:55.698Z,24.45
2022-08-10T09:08:01.660Z,24.45
2022-08-10T09:08:56.721Z,24.48
2022-08-10T09:09:55.669Z,24.51
2022-08-10T09:10:55.881Z,24.48
2022-08-10T09:11:55.643Z,24.50
2022-08-10T09:12:55.625Z,24.54
2022-08-10T09:13:55.623Z,24.54
2022-08-10T09:14:55.616Z,24.55
2022-08-10T09:16:00.502Z,24.57
2022-08-10T09:16:56.573Z,24.55
2022-08-10T09:17:55.581Z,24.55
2022-08-10T09:18:55.585Z,24.58
2022-08-10T09:19:55.556Z,24.60
2022-08-10T09:20:55.542Z,24.60
2022-08-10T09:22:10.767Z,24.61
2022-08-10T09:22:57.810Z,24.63
2022-08-10T09:24:01.902Z,24.60
2022-08-10T09:24:56.490Z,24.65
2022-08-10T09:25:55.470Z,24.66
2022-08-10T09:26:55.684Z,24.69
2022-08-10T09:27:55.469Z,24.73
2022-08-10T09:28:57.740Z,24.74
2022-08-10T09:29:56.422Z,24.77
2022-08-10T09:31:20.841Z,24.80
2022-08-10T09:36:14.701Z,24.84
2022-08-10T09:36:21.927Z,24.86
2022-08-10T09:36:23.504Z,24.85
2022-08-10T09:36:24.606Z,24.86
2022-08-10T09:36:26.579Z,24.81
2022-08-10T09:36:56.326Z,24.88
2022-08-10T09:38:01.915Z,24.91
2022-08-10T09:38:56.292Z,24.93
2022-08-10T09:40:48.448Z,24.96
2022-08-10T09:41:03.026Z,24.98
2022-08-10T09:41:56.496Z,24.98
2022-08-10T09:43:21.579Z,24.96
2022-08-10T09:43:56.243Z,24.99
2022-08-10T09:44:57.185Z,25.04
2022-08-10T09:45:55.211Z,25.04
2022-08-10T09:46:55.456Z,25.07
2022-08-10T09:48:01.237Z,25.07
2022-08-10T09:48:56.165Z,25.08
2022-08-10T09:49:57.041Z,25.13
2022-08-10T09:51:56.402Z,25.14
2022-08-10T09:52:58.528Z,25.16
2022-08-10T09:53:55.119Z,25.17
2022-08-10T09:54:55.103Z,25.17
2022-08-10T09:56:17.693Z,25.21
2022-08-10T09:57:07.159Z,25.25
2022-08-10T09:57:56.971Z,25.26
2022-08-10T09:59:48.243Z,25.31
2022-08-10T10:00:01.600Z,25.31
2022-08-10T10:00:56.043Z,25.33
2022-08-10T10:02:03.043Z,25.33
2022-08-10T10:02:56.024Z,25.32
2022-08-10T10:03:55.035Z,25.35
2022-08-10T10:04:54.991Z,25.38
2022-08-10T10:05:54.989Z,25.41
2022-08-10T10:06:54.951Z,25.43
2022-08-10T10:07:55.178Z,25.43
2022-08-10T10:09:10.543Z,25.43
2022-08-10T10:09:55.926Z,25.41
2022-08-10T10:10:54.924Z,25.43
2022-08-10T10:11:54.885Z,25.41
2022-08-10T10:12:55.127Z,25.41
2022-08-10T10:14:03.979Z,25.43
2022-08-10T10:14:55.852Z,25.38
2022-08-10T10:15:54.837Z,25.40
2022-08-10T10:16:54.817Z,25.41
2022-08-10T10:17:55.055Z,25.44
2022-08-10T10:18:54.794Z,25.44
2022-08-10T10:19:54.784Z,25.46
2022-08-10T10:20:54.764Z,25.50
2022-08-10T10:21:56.612Z,25.53
2022-08-10T10:22:54.744Z,25.55
2022-08-10T10:24:21.691Z,25.59
2022-08-10T10:24:55.715Z,25.58
2022-08-10T10:25:59.389Z,25.54
2022-08-10T10:26:55.933Z,25.54
2022-08-10T10:27:54.700Z,25.55
2022-08-10T10:29:24.863Z,25.58
2022-08-10T10:29:59.292Z,25.59
2022-08-10T10:30:54.662Z,25.63
2022-08-10T10:31:54.632Z,25.66
2022-08-10T10:32:58.044Z,25.65
2022-08-10T10:33:54.607Z,25.63
2022-08-10T10:34:54.590Z,25.65
2022-08-10T10:35:54.586Z,25.66
2022-08-10T10:36:54.580Z,25.63
2022-08-10T10:38:00.892Z,25.60
2022-08-10T10:38:55.538Z,25.60
2022-08-10T10:39:54.602Z,25.60
2022-08-10T10:40:54.507Z,25.60
2022-08-10T10:41:56.279Z,25.63
2022-08-10T10:42:55.718Z,25.68
2022-08-10T10:43:54.475Z,25.68
2022-08-10T10:44:54.475Z,25.70
2022-08-10T10:45:54.497Z,25.72
2022-08-10T10:46:54.438Z,25.69
2022-08-10T10:47:54.426Z,25.72
2022-08-10T10:48:54.647Z,25.73
2022-08-10T10:49:54.405Z,25.73
2022-08-10T10:50:54.386Z,25.75
2022-08-10T10:51:54.373Z,25.75
2022-08-10T10:52:54.355Z,25.72
2022-08-10T10:53:54.594Z,25.75
2022-08-10T10:54:54.344Z,25.75
2022-08-10T10:56:14.689Z,25.72
2022-08-10T10:56:55.327Z,25.69
2022-08-10T10:57:58.622Z,25.70
2022-08-10T10:58:55.510Z,25.73
2022-08-10T10:59:57.519Z,25.78
2022-08-10T11:00:54.272Z,25.81
2022-08-10T11:01:54.243Z,25.83
2022-08-10T11:02:54.233Z,25.84
2022-08-10T11:03:54.262Z,25.85
2022-08-10T11:04:57.316Z,25.88
2022-08-10T11:05:54.201Z,25.91
2022-08-10T11:06:54.180Z,25.95
2022-08-10T11:07:55.613Z,25.95
2022-08-10T11:08:54.150Z,25.95
2022-08-10T11:10:03.589Z,25.96
2022-08-10T11:10:56.276Z,25.98
2022-08-10T11:12:00.896Z,25.98
2022-08-10T11:12:55.096Z,25.95
2022-08-10T11:14:26.649Z,25.93
2022-08-10T11:14:55.309Z,25.96
2022-08-10T11:15:54.058Z,25.96
2022-08-10T11:16:58.564Z,25.98
2022-08-10T11:17:55.042Z,25.98
2022-08-10T11:18:54.033Z,25.99
2022-08-10T11:20:01.491Z,26.00
2022-08-10T11:20:55.247Z,26.05
2022-08-10T11:21:53.990Z,26.07
2022-08-10T11:22:53.987Z,26.09
2022-08-10T11:24:47.077Z,26.10
2022-08-10T11:24:54.952Z,26.15
2022-08-10T11:25:54.192Z,26.16
2022-08-10T11:26:53.932Z,26.21
2022-08-10T11:27:53.921Z,26.23
2022-08-10T11:28:53.984Z,26.25
2022-08-10T11:29:53.883Z,26.22
2022-08-10T11:30:54.094Z,26.19
2022-08-10T11:31:53.872Z,26.19
2022-08-10T11:32:53.841Z,26.18
2022-08-10T11:35:11.793Z,26.13
2022-08-10T11:35:55.048Z,26.13
2022-08-10T11:36:53.789Z,26.16
2022-08-10T11:38:33.006Z,26.19
2022-08-10T11:39:13.374Z,26.18
2022-08-10T11:39:54.796Z,26.21
2022-08-10T11:40:53.978Z,26.23
2022-08-10T11:42:11.385Z,26.25
2022-08-10T11:42:54.711Z,26.23
2022-08-10T11:43:53.701Z,26.25
2022-08-10T11:44:53.702Z,26.28
2022-08-10T11:45:54.757Z,26.28
2022-08-10T11:46:53.660Z,26.29
2022-08-10T11:47:53.647Z,26.28
2022-08-10T11:48:56.944Z,26.28
2022-08-10T11:49:54.643Z,26.28
2022-08-10T11:50:53.836Z,26.29
2022-08-10T11:51:53.593Z,26.31
2022-08-10T11:52:53.623Z,26.28
2022-08-10T11:53:53.578Z,26.29
2022-08-10T11:54:53.557Z,26.31
2022-08-10T11:55:53.553Z,26.31
2022-08-10T11:56:57.247Z,26.28
2022-08-10T11:57:55.703Z,26.29
2022-08-10T11:58:53.546Z,26.33
2022-08-10T11:59:58.397Z,26.33
2022-08-10T12:00:54.722Z,26.36
2022-08-10T12:01:53.483Z,26.40
2022-08-10T12:02:53.561Z,26.43
2022-08-10T12:03:53.451Z,26.45
2022-08-10T12:04:53.438Z,26.44
2022-08-10T12:05:54.950Z,26.44
2022-08-10T12:06:56.280Z,26.45
2022-08-10T12:10:02.981Z,26.47
2022-08-10T12:10:03.548Z,26.48
2022-08-10T12:10:10.999Z,26.48
2022-08-10T12:10:54.370Z,26.51
2022-08-10T12:11:53.374Z,26.51
2022-08-10T12:12:53.420Z,26.51
2022-08-10T12:14:17.941Z,26.48
2022-08-10T12:14:54.300Z,26.48
2022-08-10T12:15:53.289Z,26.48
2022-08-10T12:16:53.505Z,26.53
2022-08-10T12:17:53.269Z,26.58
2022-08-10T12:18:53.258Z,26.55
2022-08-10T12:20:01.838Z,26.55
2022-08-10T12:20:54.227Z,26.55
2022-08-10T12:21:53.205Z,26.56
2022-08-10T12:22:53.433Z,26.58
2022-08-10T12:24:02.622Z,26.56
2022-08-10T12:24:54.189Z,26.55
2022-08-10T12:25:55.707Z,26.51
2022-08-10T12:26:54.155Z,26.48
2022-08-10T12:27:53.376Z,26.51
2022-08-10T12:28:53.124Z,26.53
2022-08-10T12:29:53.096Z,26.55
2022-08-10T12:30:53.094Z,26.58
2022-08-10T12:31:54.014Z,26.60
2022-08-10T12:32:53.304Z,26.60
2022-08-10T12:34:01.829Z,26.62
2022-08-10T12:34:54.036Z,26.60
2022-08-10T12:36:16.993Z,26.63
2022-08-10T12:36:54.015Z,26.66
2022-08-10T12:37:53.233Z,26.65
2022-08-10T12:38:53.017Z,26.65
2022-08-10T12:39:53.015Z,26.66
2022-08-10T12:40:52.970Z,26.71
2022-08-10T12:41:52.983Z,26.70
2022-08-10T12:43:02.583Z,26.71
2022-08-10T12:44:08.430Z,26.73
2022-08-10T12:44:53.902Z,26.73
2022-08-10T12:45:52.926Z,26.71
2022-08-10T12:46:52.887Z,26.74
2022-08-10T12:47:53.131Z,26.74
2022-08-10T12:48:52.860Z,26.77
2022-08-10T12:50:26.619Z,26.80
2022-08-10T12:50:53.837Z,26.83
2022-08-10T12:51:52.820Z,26.80
2022-08-10T12:52:53.048Z,26.83
2022-08-10T12:53:52.807Z,26.81